Time;durP1;ratioP1;P1;durP2;ratioP2;P2;SDS_P1;SDS_P2;PMS_P1;PMS_P2;Temp;Humidity;BMP_temperature;BMP_pressure;BME280_temperature;BME280_humidity;BME280_pressure;Samples;Min_cycle;Max_cycle;Signal;HPM_P1;HPM_P2
2022/06/17 00:00:55;;;;;;;9.60;6.50;;;17.00;68.70;;;;;;4972564;28;21005;-63
2022/06/17 00:03:25;;;;;;;11.53;6.53;;;16.90;69.30;;;;;;4991097;28;20432;-62
2022/06/17 00:05:51;;;;;;;7.10;6.40;;;16.80;69.90;;;;;;4976948;28;20416;-63
2022/06/17 00:08:38;;;;;;;7.20;5.80;;;16.80;71.40;;;;;;4972680;28;20445;-63
2022/06/17 00:11:09;;;;;;;8.70;6.40;;;16.70;71.50;;;;;;4988848;28;20432;-62
2022/06/17 00:13:35;;;;;;;7.33;5.73;;;16.60;70.40;;;;;;4996035;28;20428;-63
2022/06/17 00:16:00;;;;;;;7.23;5.80;;;16.60;70.60;;;;;;4990737;28;20507;-63
2022/06/17 00:18:26;;;;;;;6.90;6.20;;;16.50;70.70;;;;;;4996352;28;20288;-62
2022/06/17 00:20:52;;;;;;;9.67;6.87;;;16.40;72.30;;;;;;4989729;28;20606;-62
2022/06/17 00:23:22;;;;;;;6.80;6.10;;;16.40;72.90;;;;;;4992614;28;20504;-62
2022/06/17 00:25:49;;;;;;;10.30;6.73;;;16.30;73.20;;;;;;4992762;28;20240;-62
2022/06/17 00:28:20;;;;;;;8.13;6.20;;;16.40;73.80;;;;;;4995203;28;20436;-62
2022/06/17 00:30:47;;;;;;;7.43;5.70;;;16.30;73.40;;;;;;4997078;28;20981;-63
2022/06/17 00:33:14;;;;;;;7.90;6.20;;;16.30;73.40;;;;;;4991288;28;20844;-62
2022/06/17 00:35:52;;;;;;;6.80;6.00;;;16.30;74.00;;;;;;4994246;28;20508;-63
2022/06/17 00:38:23;;;;;;;10.93;6.67;;;16.20;74.80;;;;;;4990124;28;20459;-63
2022/06/17 00:40:50;;;;;;;7.43;5.70;;;16.20;76.50;;;;;;4996400;28;20439;-62
2022/06/17 00:43:28;;;;;;;9.50;6.97;;;16.20;78.00;;;;;;4992332;28;20435;-63
2022/06/17 00:46:05;;;;;;;7.23;6.60;;;16.10;78.30;;;;;;4992585;28;20417;-63
2022/06/17 00:48:39;;;;;;;9.67;6.83;;;16.00;78.90;;;;;;5006110;28;20439;-62
2022/06/17 00:51:27;;;;;;;8.50;6.70;;;16.00;78.90;;;;;;5001588;28;21227;-63
2022/06/17 00:54:21;;;;;;;8.20;6.63;;;16.00;79.40;;;;;;4992718;28;20423;-63
2022/06/17 00:56:46;;;;;;;8.93;6.60;;;16.00;80.80;;;;;;4991876;28;20439;-62
2022/06/17 00:59:16;;;;;;;9.07;7.10;;;15.90;81.20;;;;;;4996620;28;21125;-63
2022/06/17 01:01:50;;;;;;;11.23;6.80;;;15.90;81.70;;;;;;4992567;28;20177;-63
2022/06/17 01:04:24;;;;;;;8.53;6.23;;;15.90;82.00;;;;;;4994323;28;20443;-63
2022/06/17 01:06:54;;;;;;;9.53;6.47;;;15.80;82.70;;;;;;4994049;28;20965;-63
2022/06/17 01:12:16;;;;;;;6.70;6.07;;;15.80;82.50;;;;;;4992890;28;20435;-63
2022/06/17 01:14:43;;;;;;;6.90;5.43;;;15.80;82.10;;;;;;4993042;28;20435;-63
2022/06/17 01:17:12;;;;;;;7.37;6.60;;;15.80;82.00;;;;;;4991869;28;20468;-65
2022/06/17 01:19:43;;;;;;;6.87;5.50;;;15.70;81.10;;;;;;4987220;28;20460;-63
2022/06/17 01:22:36;;;;;;;8.70;6.40;;;15.70;79.30;;;;;;4991132;28;20516;-63
2022/06/17 01:25:17;;;;;;;7.00;6.30;;;15.60;75.20;;;;;;4991825;28;20432;-63
2022/06/17 01:27:51;;;;;;;7.00;6.10;;;15.60;76.70;;;;;;4992154;28;20470;-63
2022/06/17 01:30:34;;;;;;;9.30;5.60;;;15.50;77.00;;;;;;4984308;28;21031;-63
2022/06/17 01:33:10;;;;;;;7.33;5.60;;;15.50;77.30;;;;;;4987948;28;21459;-63
2022/06/17 01:35:45;;;;;;;6.73;6.13;;;15.40;77.20;;;;;;4991197;28;20439;-63
2022/06/17 01:38:11;;;;;;;9.13;6.57;;;15.40;78.30;;;;;;4992164;28;20603;-64
2022/06/17 01:40:37;;;;;;;8.17;6.20;;;15.40;79.30;;;;;;4992037;28;20441;-63
2022/06/17 01:43:08;;;;;;;11.93;7.10;;;15.40;79.40;;;;;;4988337;28;20439;-63
2022/06/17 01:45:38;;;;;;;9.17;6.63;;;15.40;80.00;;;;;;4978581;28;20186;-63
2022/06/17 01:48:04;;;;;;;7.47;6.33;;;15.40;81.20;;;;;;4989941;28;20444;-64
2022/06/17 01:50:31;;;;;;;7.40;6.33;;;15.30;81.70;;;;;;4990687;28;20456;-64
2022/06/17 01:53:12;;;;;;;8.07;7.10;;;15.30;81.60;;;;;;4988789;28;20438;-63
2022/06/17 01:55:47;;;;;;;9.20;5.93;;;15.30;80.40;;;;;;4988459;28;21194;-62
2022/06/17 01:58:27;;;;;;;7.73;5.80;;;15.30;80.50;;;;;;4979458;28;20496;-62
2022/06/17 02:00:54;;;;;;;7.50;6.53;;;15.20;80.60;;;;;;4979790;28;20443;-62
2022/06/17 02:03:26;;;;;;;8.90;6.63;;;15.10;81.80;;;;;;4978902;28;20440;-62
2022/06/17 02:06:04;;;;;;;10.07;6.40;;;15.10;82.90;;;;;;4994076;28;20451;-63
2022/06/17 02:08:29;;;;;;;8.53;6.70;;;15.10;83.40;;;;;;4980242;28;20445;-62
2022/06/17 02:10:55;;;;;;;7.63;6.27;;;15.10;83.50;;;;;;4987732;28;21024;-61
2022/06/17 02:13:22;;;;;;;6.70;6.10;;;15.00;83.90;;;;;;4989504;28;20204;-62
2022/06/17 02:15:48;;;;;;;7.63;6.47;;;15.00;84.20;;;;;;4993520;28;20441;-62
2022/06/17 02:18:17;;;;;;;8.03;7.00;;;15.10;83.00;;;;;;4991076;28;20472;-62
2022/06/17 02:20:44;;;;;;;11.83;6.10;;;15.10;81.80;;;;;;4987868;28;20900;-62
2022/06/17 02:23:10;;;;;;;6.63;5.93;;;15.00;80.70;;;;;;4988105;28;20432;-62
2022/06/17 02:25:47;;;;;;;9.80;6.60;;;15.00;82.90;;;;;;4977498;28;20878;-63
2022/06/17 02:28:15;;;;;;;7.47;6.60;;;14.90;83.20;;;;;;4988571;28;20934;-62
2022/06/17 02:30:43;;;;;;;7.30;6.60;;;14.90;84.70;;;;;;4990364;28;20554;-62
2022/06/17 02:33:10;;;;;;;9.37;6.20;;;14.90;84.20;;;;;;4985418;28;20436;-63
2022/06/17 02:35:59;;;;;;;8.50;6.10;;;14.90;84.90;;;;;;5010149;28;20437;-63
2022/06/17 02:38:29;;;;;;;8.63;6.03;;;14.90;85.90;;;;;;4979600;28;20460;-61
2022/06/17 02:41:05;;;;;;;7.40;6.00;;;14.90;85.00;;;;;;4991851;28;21011;-62
2022/06/17 02:43:35;;;;;;;9.43;6.33;;;14.90;85.70;;;;;;4993957;28;20485;-61
2022/06/17 02:46:07;;;;;;;8.47;5.83;;;14.90;85.30;;;;;;4972791;28;20463;-62
2022/06/17 02:48:45;;;;;;;9.17;6.10;;;14.90;85.20;;;;;;4996560;28;20472;-62
2022/06/17 02:51:12;;;;;;;9.80;6.97;;;14.80;85.20;;;;;;4979862;28;20444;-62
2022/06/17 02:53:39;;;;;;;7.40;6.30;;;14.80;86.10;;;;;;4993310;28;21460;-63
2022/06/17 02:56:24;;;;;;;8.83;7.30;;;14.70;87.50;;;;;;4982840;28;20436;-63
2022/06/17 02:59:30;;;;;;;8.60;6.67;;;14.70;88.50;;;;;;4984559;28;20452;-62
2022/06/17 03:02:01;;;;;;;8.30;6.57;;;14.60;89.60;;;;;;4977282;28;21012;-62
2022/06/17 03:04:30;;;;;;;6.90;6.30;;;14.60;90.60;;;;;;4983322;28;20436;-62
2022/06/17 03:06:56;;;;;;;9.40;6.23;;;14.60;90.10;;;;;;4966037;28;20437;-63
2022/06/17 03:09:31;;;;;;;8.50;6.90;;;14.50;89.70;;;;;;4997065;28;20991;-62
2022/06/17 03:12:32;;;;;;;12.07;6.70;;;14.50;89.00;;;;;;4979995;28;20435;-64
2022/06/17 03:15:01;;;;;;;6.33;5.60;;;14.40;90.00;;;;;;4978795;28;20739;-63
2022/06/17 03:17:27;;;;;;;9.03;5.73;;;14.50;89.20;;;;;;5002087;28;20482;-64
2022/06/17 03:19:56;;;;;;;10.20;6.50;;;14.50;89.60;;;;;;5013447;28;20613;-63
2022/06/17 03:22:24;;;;;;;10.27;5.57;;;14.50;89.20;;;;;;4978420;28;20455;-63
2022/06/17 03:25:19;;;;;;;9.87;6.57;;;14.50;87.20;;;;;;4978617;28;20947;-63
2022/06/17 03:27:55;;;;;;;6.30;5.70;;;14.50;86.80;;;;;;4976437;28;20435;-63
2022/06/17 03:30:45;;;;;;;10.67;6.43;;;14.50;87.50;;;;;;4991493;28;20446;-63
2022/06/17 03:33:36;;;;;;;7.83;6.00;;;14.50;87.10;;;;;;4995139;28;20431;-64
2022/06/17 03:36:09;;;;;;;10.90;6.07;;;14.50;89.00;;;;;;5000647;28;20498;-62
2022/06/17 03:38:46;;;;;;;7.07;6.40;;;14.60;90.10;;;;;;5002557;28;20468;-64
2022/06/17 03:41:14;;;;;;;10.63;7.60;;;14.50;89.60;;;;;;4986768;28;20520;-64
2022/06/17 03:43:56;;;;;;;7.23;6.53;;;14.50;90.30;;;;;;4976794;28;20431;-63
2022/06/17 03:46:25;;;;;;;7.43;6.57;;;14.50;90.30;;;;;;5010555;28;20415;-63
2022/06/17 03:48:51;;;;;;;9.07;6.53;;;14.50;90.90;;;;;;4995854;28;20451;-62
2022/06/17 03:51:22;;;;;;;7.60;5.83;;;14.50;91.20;;;;;;4988708;28;21013;-63
2022/06/17 03:53:48;;;;;;;7.53;6.67;;;14.50;91.30;;;;;;4987416;28;20180;-63
2022/06/17 03:56:27;;;;;;;7.40;6.70;;;14.50;91.10;;;;;;4978775;28;20440;-63
2022/06/17 03:58:55;;;;;;;8.20;6.27;;;14.50;91.60;;;;;;4985975;28;20467;-62
2022/06/17 04:01:27;;;;;;;7.67;6.70;;;14.50;91.80;;;;;;4995376;28;20443;-63
2022/06/17 04:03:56;;;;;;;7.27;6.47;;;14.50;91.40;;;;;;4993858;28;20433;-63
2022/06/17 04:06:29;;;;;;;8.10;7.30;;;14.40;91.50;;;;;;4980729;28;20536;-63
2022/06/17 04:08:57;;;;;;;8.33;6.90;;;14.30;91.90;;;;;;4986197;28;21021;-64
2022/06/17 04:11:36;;;;;;;7.73;6.97;;;14.30;92.20;;;;;;5000842;28;20518;-64
2022/06/17 04:14:06;;;;;;;7.63;6.93;;;14.30;92.50;;;;;;4988752;28;20475;-63
2022/06/17 04:16:53;;;;;;;7.00;6.30;;;14.30;92.80;;;;;;4977389;28;20941;-63
2022/06/17 04:19:22;;;;;;;7.03;6.33;;;14.40;93.40;;;;;;4986550;28;20491;-63
2022/06/17 04:21:48;;;;;;;7.23;6.50;;;14.50;93.50;;;;;;4990533;28;21173;-64
2022/06/17 04:24:17;;;;;;;8.43;6.50;;;14.60;93.30;;;;;;4996224;28;20953;-63
2022/06/17 04:26:45;;;;;;;10.87;6.73;;;14.70;93.50;;;;;;4990930;28;20427;-63
2022/06/17 04:29:18;;;;;;;7.03;6.03;;;14.80;93.40;;;;;;4999083;28;20449;-63
2022/06/17 04:31:49;;;;;;;6.77;6.07;;;14.90;93.60;;;;;;4971925;28;20504;-63
2022/06/17 04:34:17;;;;;;;8.30;6.70;;;15.00;93.60;;;;;;4991584;28;20435;-63
2022/06/17 04:36:50;;;;;;;7.67;6.87;;;15.10;93.10;;;;;;4998247;28;20945;-63
2022/06/17 04:39:51;;;;;;;10.43;6.90;;;15.20;92.30;;;;;;4967435;28;20543;-62
2022/06/17 04:42:40;;;;;;;9.50;7.23;;;15.30;90.90;;;;;;4970217;28;20439;-63
2022/06/17 04:45:21;;;;;;;8.97;7.07;;;15.40;87.80;;;;;;5006115;28;20514;-63
2022/06/17 04:47:47;;;;;;;10.50;7.17;;;15.50;87.50;;;;;;4983439;28;20455;-63
2022/06/17 04:50:17;;;;;;;13.23;7.20;;;15.60;84.30;;;;;;5002357;28;20462;-62
2022/06/17 04:52:45;;;;;;;7.17;6.27;;;15.70;84.20;;;;;;4983738;28;20181;-61
2022/06/17 04:55:26;;;;;;;8.13;6.70;;;15.70;84.00;;;;;;4994108;28;20462;-63
2022/06/17 04:57:51;;;;;;;10.13;7.50;;;15.80;85.10;;;;;;5006638;28;20968;-63
2022/06/17 05:00:21;;;;;;;9.20;6.73;;;15.90;87.20;;;;;;4995165;28;20452;-63
2022/06/17 05:02:47;;;;;;;7.43;6.73;;;15.90;87.40;;;;;;4977697;28;20189;-63
2022/06/17 05:05:40;;;;;;;9.37;7.13;;;15.80;88.20;;;;;;4996713;28;20471;-63
2022/06/17 05:08:30;;;;;;;9.80;7.33;;;15.80;88.20;;;;;;4981033;28;20444;-63
2022/06/17 05:11:02;;;;;;;7.73;6.93;;;15.90;84.90;;;;;;4982169;28;20516;-62
2022/06/17 05:13:36;;;;;;;7.67;6.90;;;15.90;85.40;;;;;;4993518;28;20957;-63
2022/06/17 05:16:02;;;;;;;7.60;6.67;;;15.90;83.10;;;;;;4986475;28;20929;-63
2022/06/17 05:18:28;;;;;;;8.40;6.70;;;15.90;84.70;;;;;;4974685;28;20475;-63
2022/06/17 05:20:53;;;;;;;8.43;7.20;;;16.00;85.20;;;;;;4967799;28;20204;-64
2022/06/17 05:23:20;;;;;;;8.77;6.97;;;16.00;85.30;;;;;;4982729;28;20752;-65
2022/06/17 05:25:48;;;;;;;9.00;7.87;;;16.10;85.80;;;;;;5002723;28;20202;-64
2022/06/17 05:28:19;;;;;;;8.13;6.40;;;16.20;83.90;;;;;;4977821;28;20440;-64
2022/06/17 05:30:51;;;;;;;7.90;6.77;;;16.30;85.80;;;;;;4991319;28;20452;-63
2022/06/17 05:33:18;;;;;;;9.63;6.90;;;16.40;85.40;;;;;;4975717;28;20446;-64
2022/06/17 05:35:44;;;;;;;8.70;6.30;;;16.50;84.40;;;;;;4997060;28;20525;-64
2022/06/17 05:38:10;;;;;;;13.30;6.50;;;16.60;80.70;;;;;;4984311;28;20538;-63
2022/06/17 05:40:37;;;;;;;11.10;6.53;;;16.80;80.00;;;;;;4985187;28;20261;-64
2022/06/17 05:43:03;;;;;;;6.20;5.60;;;16.90;78.50;;;;;;4984575;28;20452;-64
2022/06/17 05:45:29;;;;;;;8.40;6.33;;;17.00;76.80;;;;;;4992366;28;20437;-64
2022/06/17 05:47:55;;;;;;;12.23;6.20;;;17.10;70.40;;;;;;4989247;28;20774;-65
2022/06/17 05:50:23;;;;;;;9.43;6.20;;;17.10;69.60;;;;;;5000722;28;20460;-65
2022/06/17 05:52:50;;;;;;;9.20;6.27;;;17.20;70.60;;;;;;4981725;28;20207;-65
2022/06/17 05:55:16;;;;;;;6.30;5.57;;;17.40;70.50;;;;;;4979842;28;20847;-61
2022/06/17 05:57:42;;;;;;;6.00;5.40;;;17.50;68.50;;;;;;4985189;28;20495;-60
2022/06/17 06:00:08;;;;;;;6.07;5.43;;;17.50;66.70;;;;;;4968458;28;20587;-59
2022/06/17 06:02:33;;;;;;;9.73;5.30;;;17.70;65.90;;;;;;4982547;28;20789;-60
2022/06/17 06:04:59;;;;;;;6.97;6.30;;;17.70;66.10;;;;;;4981727;28;20440;-61
2022/06/17 06:07:25;;;;;;;9.23;6.33;;;17.80;65.90;;;;;;4976966;28;20188;-62
2022/06/17 06:09:50;;;;;;;12.43;6.80;;;17.80;65.70;;;;;;4974371;28;20202;-61
2022/06/17 06:12:17;;;;;;;7.83;5.80;;;17.90;65.10;;;;;;4983971;28;20184;-62
2022/06/17 06:14:43;;;;;;;7.00;6.30;;;17.90;63.90;;;;;;4966118;28;20178;-62
2022/06/17 06:17:11;;;;;;;7.10;5.13;;;18.00;64.00;;;;;;4982234;28;20448;-63
2022/06/17 06:19:37;;;;;;;7.07;5.60;;;18.10;63.20;;;;;;4990783;28;20208;-62
2022/06/17 06:22:04;;;;;;;8.20;5.80;;;18.20;63.00;;;;;;4982211;28;21134;-63
2022/06/17 06:24:29;;;;;;;7.83;5.97;;;18.20;63.20;;;;;;4993722;28;20628;-64
2022/06/17 06:26:55;;;;;;;9.43;6.20;;;18.30;63.10;;;;;;4991941;28;20877;-64
2022/06/17 06:29:21;;;;;;;9.43;6.30;;;18.40;63.20;;;;;;4990254;28;20203;-64
2022/06/17 06:31:48;;;;;;;7.30;5.60;;;18.50;62.50;;;;;;4997204;28;20205;-64
2022/06/17 06:34:16;;;;;;;9.87;5.80;;;18.50;61.70;;;;;;4984183;28;20436;-63
2022/06/17 06:36:42;;;;;;;6.03;5.43;;;18.60;62.00;;;;;;4997095;28;20433;-65
2022/06/17 06:39:08;;;;;;;6.00;5.40;;;18.70;62.30;;;;;;4991522;28;20570;-63
2022/06/17 06:41:34;;;;;;;6.40;4.70;;;18.90;60.40;;;;;;4975715;28;20424;-65
2022/06/17 06:43:59;;;;;;;8.93;5.50;;;18.90;59.60;;;;;;4988358;28;21148;-64
2022/06/17 06:46:25;;;;;;;8.93;6.07;;;19.00;58.00;;;;;;4986414;28;20184;-63
2022/06/17 06:48:51;;;;;;;7.20;5.00;;;19.10;57.80;;;;;;4990775;28;20189;-64
2022/06/17 06:51:18;;;;;;;5.80;5.17;;;19.20;58.00;;;;;;4988339;28;20556;-64
2022/06/17 06:53:45;;;;;;;6.10;4.50;;;19.30;57.80;;;;;;4967447;28;20538;-58
2022/06/17 06:56:11;;;;;;;8.03;5.47;;;19.40;57.40;;;;;;4980970;28;20444;-65
2022/06/17 06:58:36;;;;;;;9.43;5.47;;;19.50;57.50;;;;;;4982215;28;20457;-64
2022/06/17 07:01:02;;;;;;;8.77;5.60;;;19.60;57.50;;;;;;4975445;28;20523;-65
2022/06/17 07:03:29;;;;;;;6.30;4.70;;;19.70;57.30;;;;;;4979216;28;20181;-63
2022/06/17 07:05:58;;;;;;;6.63;5.30;;;19.90;57.10;;;;;;4987914;28;20170;-64
2022/06/17 07:08:27;;;;;;;6.93;5.30;;;20.00;57.00;;;;;;4982122;28;20491;-64
2022/06/17 07:10:56;;;;;;;5.73;4.60;;;20.10;56.90;;;;;;4988639;28;20532;-64
2022/06/17 07:13:22;;;;;;;5.30;4.80;;;20.30;56.70;;;;;;4987026;28;20818;-62
2022/06/17 07:15:51;;;;;;;13.40;5.57;;;20.40;55.60;;;;;;4987980;28;20484;-63
2022/06/17 07:18:23;;;;;;;9.67;5.40;;;20.40;55.30;;;;;;4984458;28;20232;-59
2022/06/17 07:20:52;;;;;;;10.43;5.30;;;20.40;54.70;;;;;;4959877;28;20459;-65
2022/06/17 07:23:29;;;;;;;8.20;5.10;;;20.40;54.60;;;;;;4978407;28;20436;-65
2022/06/17 07:25:59;;;;;;;9.87;5.57;;;20.40;54.30;;;;;;4994657;28;20440;-64
2022/06/17 07:28:26;;;;;;;6.07;4.70;;;20.40;54.50;;;;;;4974386;28;20443;-63
2022/06/17 07:30:53;;;;;;;5.73;4.23;;;20.50;54.50;;;;;;4977308;28;21104;-65
2022/06/17 07:33:21;;;;;;;7.27;4.90;;;20.70;55.00;;;;;;4980021;28;20443;-64
2022/06/17 07:35:48;;;;;;;5.63;5.00;;;20.80;53.70;;;;;;4965727;28;20494;-64
2022/06/17 07:41:03;;;;;;;6.37;4.20;;;21.10;52.00;;;;;;4976423;28;20440;-66
2022/06/17 07:43:28;;;;;;;6.17;4.57;;;21.20;51.70;;;;;;4970457;28;20444;-61
2022/06/17 07:45:54;;;;;;;3.67;3.33;;;21.30;51.90;;;;;;4969896;28;20447;-61
2022/06/17 07:48:20;;;;;;;5.53;4.40;;;21.50;52.10;;;;;;4974087;28;20357;-61
2022/06/17 07:50:47;;;;;;;4.33;3.50;;;21.60;51.40;;;;;;4970030;28;20287;-61
2022/06/17 07:53:14;;;;;;;5.00;3.30;;;21.80;51.10;;;;;;4974069;28;20440;-61
2022/06/17 07:55:41;;;;;;;5.07;3.50;;;22.00;50.40;;;;;;4977004;28;20441;-61
2022/06/17 07:58:07;;;;;;;7.10;4.00;;;22.10;47.80;;;;;;4977897;28;20463;-61
2022/06/17 08:00:42;;;;;;;7.13;3.50;;;22.20;48.70;;;;;;4986783;28;20550;-62
2022/06/17 08:03:09;;;;;;;3.97;3.13;;;22.40;48.90;;;;;;4964829;28;20438;-62
2022/06/17 08:05:35;;;;;;;8.63;3.50;;;22.60;48.00;;;;;;4995434;28;20424;-62
2022/06/17 08:08:07;;;;;;;5.17;3.67;;;22.80;48.20;;;;;;4988071;28;20423;-62
2022/06/17 08:10:33;;;;;;;5.90;3.40;;;22.90;48.10;;;;;;4983897;28;20551;-62
2022/06/17 08:12:59;;;;;;;6.83;3.80;;;23.00;48.20;;;;;;4975860;28;20450;-62
2022/06/17 08:15:26;;;;;;;5.50;3.83;;;23.10;48.00;;;;;;4985655;28;20432;-62
2022/06/17 08:17:52;;;;;;;5.07;3.43;;;23.20;48.00;;;;;;4982007;28;20460;-62
2022/06/17 08:20:19;;;;;;;4.23;3.83;;;23.30;47.20;;;;;;4981070;28;20471;-61
2022/06/17 08:22:45;;;;;;;6.90;3.40;;;23.30;46.80;;;;;;4978962;28;20460;-62
2022/06/17 08:25:12;;;;;;;32.23;9.90;;;23.40;46.20;;;;;;4963164;28;20440;-62
2022/06/17 08:27:49;;;;;;;5.17;3.20;;;23.50;45.30;;;;;;4982230;28;20177;-62
2022/06/17 08:30:17;;;;;;;4.40;3.13;;;23.60;45.20;;;;;;4962320;28;20847;-61
2022/06/17 08:32:46;;;;;;;2.77;2.57;;;23.80;43.90;;;;;;4978544;28;20494;-62
2022/06/17 08:35:17;;;;;;;3.43;3.13;;;23.90;44.00;;;;;;4982533;28;20437;-62
2022/06/17 08:37:44;;;;;;;4.37;3.07;;;24.00;43.30;;;;;;4982952;28;20804;-62
2022/06/17 08:40:23;;;;;;;8.40;4.30;;;24.00;42.20;;;;;;4983485;28;20462;-61
2022/06/17 08:43:26;;;;;;;10.47;3.60;;;24.10;42.60;;;;;;4977951;28;20439;-61
2022/06/17 08:46:36;;;;;;;5.50;3.53;;;24.20;42.20;;;;;;4982337;28;20438;-62
2022/06/17 08:49:02;;;;;;;3.73;2.77;;;24.30;42.20;;;;;;4983590;28;20583;-61
2022/06/17 08:51:33;;;;;;;4.00;2.83;;;24.40;40.70;;;;;;4980890;28;21038;-62
2022/06/17 08:54:24;;;;;;;4.20;3.10;;;24.50;41.40;;;;;;4978604;28;20181;-62
2022/06/17 08:56:58;;;;;;;5.83;3.30;;;24.60;41.90;;;;;;4977224;28;20440;-62
2022/06/17 08:59:48;;;;;;;6.30;2.90;;;24.70;40.90;;;;;;4977061;28;20965;-62
2022/06/17 09:02:32;;;;;;;2.47;2.27;;;24.70;38.00;;;;;;4981584;28;20506;-63
2022/06/17 09:05:25;;;;;;;3.90;2.90;;;24.60;38.20;;;;;;4982485;28;20424;-62
2022/06/17 09:08:36;;;;;;;3.40;2.70;;;24.60;38.40;;;;;;4980210;28;20467;-62
2022/06/17 09:11:02;;;;;;;3.73;2.70;;;24.70;38.50;;;;;;4935229;28;21071;-61
2022/06/17 09:14:01;;;;;;;4.17;2.60;;;24.80;38.40;;;;;;4980860;28;20463;-62
2022/06/17 09:16:49;;;;;;;6.63;2.67;;;24.90;38.20;;;;;;4984656;28;20177;-62
2022/06/17 09:19:19;;;;;;;3.40;2.47;;;24.90;36.70;;;;;;4981182;28;20513;-62
2022/06/17 09:21:56;;;;;;;3.83;2.47;;;24.90;38.30;;;;;;4983648;28;20822;-60
2022/06/17 09:24:39;;;;;;;7.00;2.60;;;24.90;38.40;;;;;;4982563;28;20917;-58
2022/06/17 09:27:09;;;;;;;3.70;2.80;;;25.00;38.50;;;;;;4985710;28;20459;-58
2022/06/17 09:29:44;;;;;;;3.23;2.93;;;25.10;39.10;;;;;;4977376;28;20995;-58
2022/06/17 09:32:22;;;;;;;2.40;2.20;;;25.20;39.30;;;;;;4978644;28;20446;-57
2022/06/17 09:35:04;;;;;;;6.83;2.90;;;25.40;37.90;;;;;;4977791;28;20504;-57
2022/06/17 09:37:43;;;;;;;3.50;2.63;;;25.70;39.40;;;;;;4974367;28;20467;-57
2022/06/17 09:40:29;;;;;;;4.70;2.80;;;25.70;38.10;;;;;;4973663;28;20687;-56
2022/06/17 09:43:01;;;;;;;6.47;2.83;;;25.80;37.20;;;;;;4958021;28;20860;-57
2022/06/17 09:45:36;;;;;;;3.90;2.70;;;25.80;37.70;;;;;;4969868;28;20441;-61
2022/06/17 09:48:24;;;;;;;2.77;2.57;;;25.90;37.30;;;;;;4976785;28;20491;-58
2022/06/17 09:50:57;;;;;;;2.23;2.13;;;26.00;37.70;;;;;;4973202;28;20456;-58
2022/06/17 09:53:51;;;;;;;8.37;2.67;;;26.10;37.20;;;;;;4974401;28;20976;-57
2022/06/17 09:56:28;;;;;;;3.33;2.50;;;26.30;38.20;;;;;;4969925;28;20953;-56
2022/06/17 09:59:19;;;;;;;3.20;2.90;;;26.40;37.00;;;;;;4974036;28;20893;-57
2022/06/17 10:01:46;;;;;;;3.00;2.43;;;26.50;37.40;;;;;;4972308;28;20420;-59
2022/06/17 10:04:13;;;;;;;2.90;2.67;;;26.60;37.30;;;;;;4976586;28;20437;-57
2022/06/17 10:07:00;;;;;;;2.80;2.50;;;26.70;38.70;;;;;;4978175;28;20427;-65
2022/06/17 10:09:50;;;;;;;2.53;2.30;;;26.70;37.70;;;;;;4979231;28;20455;-64
2022/06/17 10:12:32;;;;;;;3.97;2.47;;;26.80;37.50;;;;;;4987879;28;20188;-64
2022/06/17 10:15:00;;;;;;;4.10;2.43;;;26.90;37.20;;;;;;4979361;28;20443;-64
2022/06/17 10:20:29;;;;;;;3.27;2.87;;;27.20;36.50;;;;;;4982206;28;20236;-64
2022/06/17 10:23:12;;;;;;;2.67;2.40;;;27.30;34.10;;;;;;4984955;28;20176;-64
2022/06/17 10:26:18;;;;;;;3.30;2.43;;;27.30;35.90;;;;;;4987984;28;20185;-64
2022/06/17 10:28:53;;;;;;;3.23;2.03;;;27.40;33.90;;;;;;4990157;28;20185;-64
2022/06/17 10:31:21;;;;;;;3.57;2.40;;;27.40;34.00;;;;;;4999054;28;20181;-65
2022/06/17 10:33:47;;;;;;;7.50;2.30;;;27.60;34.10;;;;;;5004395;28;20223;-65
2022/06/17 10:36:13;;;;;;;5.00;2.80;;;27.60;33.10;;;;;;4996115;28;20184;-65
2022/06/17 10:38:46;;;;;;;4.43;2.30;;;27.70;34.10;;;;;;4991713;28;22251;-65
2022/06/17 10:41:12;;;;;;;8.70;2.20;;;27.80;34.00;;;;;;4993689;28;20184;-65
2022/06/17 10:43:44;;;;;;;8.20;1.90;;;27.90;33.40;;;;;;4980345;28;20213;-65
2022/06/17 10:46:14;;;;;;;2.50;2.30;;;27.90;33.60;;;;;;4968877;28;20211;-63
2022/06/17 10:48:48;;;;;;;5.20;2.00;;;28.10;33.30;;;;;;4985610;28;20708;-65
2022/06/17 10:51:15;;;;;;;3.90;2.07;;;28.00;31.80;;;;;;4991214;28;20181;-65
2022/06/17 10:53:45;;;;;;;2.67;1.80;;;28.10;32.90;;;;;;4985780;28;20177;-66
2022/06/17 10:56:17;;;;;;;3.30;1.90;;;28.10;32.80;;;;;;4984075;28;20268;-65
2022/06/17 10:59:07;;;;;;;1.77;1.67;;;28.20;31.10;;;;;;4994928;28;20194;-66
2022/06/17 11:01:45;;;;;;;2.30;1.80;;;28.20;29.90;;;;;;4977505;28;20173;-64
2022/06/17 11:04:17;;;;;;;2.20;1.90;;;28.30;30.00;;;;;;4994397;28;20200;-64
2022/06/17 11:06:57;;;;;;;3.07;1.90;;;28.40;30.20;;;;;;4977592;28;20203;-65
2022/06/17 11:09:31;;;;;;;2.10;1.90;;;28.60;29.50;;;;;;5001367;28;20192;-65
2022/06/17 11:12:06;;;;;;;1.80;1.70;;;28.60;29.80;;;;;;4990900;28;20188;-65
2022/06/17 11:14:43;;;;;;;2.97;1.80;;;28.60;28.60;;;;;;4979605;28;20194;-65
2022/06/17 11:17:34;;;;;;;2.42;2.08;;;28.70;30.00;;;;;;4985457;28;20669;-64
2022/06/17 11:20:15;;;;;;;4.93;1.90;;;28.90;30.60;;;;;;4985063;28;20209;-64
2022/06/17 11:22:48;;;;;;;1.95;1.85;;;29.00;30.10;;;;;;4993078;28;20168;-65
2022/06/17 11:25:46;;;;;;;1.65;1.55;;;29.10;29.50;;;;;;4988067;28;20180;-64
2022/06/17 11:28:18;;;;;;;4.28;2.15;;;29.30;29.80;;;;;;4970901;28;20199;-65
2022/06/17 11:30:58;;;;;;;2.08;1.98;;;29.50;30.00;;;;;;4982988;28;20209;-65
2022/06/17 11:33:34;;;;;;;3.22;1.80;;;29.60;29.00;;;;;;4966681;28;20212;-65
2022/06/17 11:36:19;;;;;;;6.93;1.98;;;29.60;30.50;;;;;;4986941;28;20185;-66
2022/06/17 11:38:46;;;;;;;2.28;1.75;;;29.70;30.70;;;;;;4964533;28;20216;-65
2022/06/17 11:41:27;;;;;;;2.08;1.88;;;29.80;30.30;;;;;;4984657;28;20208;-65
2022/06/17 11:43:55;;;;;;;2.28;2.08;;;30.00;29.90;;;;;;5000912;28;20177;-65
2022/06/17 11:46:24;;;;;;;3.72;2.38;;;30.00;30.60;;;;;;4987023;28;20178;-64
2022/06/17 11:48:59;;;;;;;3.22;2.20;;;30.20;30.80;;;;;;4995443;28;20267;-64
2022/06/17 11:51:35;;;;;;;2.78;2.08;;;30.30;29.20;;;;;;4993781;28;20680;-64
2022/06/17 11:54:00;;;;;;;2.30;2.00;;;30.30;29.30;;;;;;4995051;28;20199;-63
2022/06/17 11:56:34;;;;;;;5.85;1.90;;;30.30;31.00;;;;;;4987693;28;20602;-65
2022/06/17 11:59:07;;;;;;;3.90;1.95;;;30.40;29.70;;;;;;4980528;28;20224;-65
2022/06/17 12:01:33;;;;;;;1.73;1.55;;;30.40;30.00;;;;;;4992484;28;20173;-65
2022/06/17 12:03:59;;;;;;;3.25;2.00;;;30.50;30.60;;;;;;4979851;28;20177;-64
2022/06/17 12:06:47;;;;;;;2.38;2.05;;;30.60;28.70;;;;;;4990445;28;20236;-63
2022/06/17 12:09:36;;;;;;;1.80;1.70;;;30.60;29.80;;;;;;4988814;28;20303;-64
2022/06/17 12:12:09;;;;;;;3.30;1.75;;;30.80;29.70;;;;;;4992176;28;20249;-64
2022/06/17 12:15:24;;;;;;;2.20;2.00;;;30.90;29.10;;;;;;5002664;28;20198;-63
2022/06/17 12:17:51;;;;;;;1.80;1.70;;;31.00;29.20;;;;;;4988262;28;20215;-65
2022/06/17 12:20:17;;;;;;;2.65;1.60;;;31.10;29.20;;;;;;4995245;28;20314;-64
2022/06/17 12:22:50;;;;;;;3.13;2.03;;;31.30;29.50;;;;;;4994188;28;20182;-65
2022/06/17 12:25:35;;;;;;;2.15;1.90;;;31.40;29.90;;;;;;4995400;28;20257;-65
2022/06/17 12:28:24;;;;;;;2.05;1.85;;;31.50;29.60;;;;;;4988873;28;20299;-65
2022/06/17 12:30:56;;;;;;;2.17;1.85;;;31.60;28.80;;;;;;4979620;28;20670;-65
2022/06/17 12:33:41;;;;;;;5.30;1.60;;;31.70;29.30;;;;;;4989721;28;20201;-65
2022/06/17 12:36:25;;;;;;;13.00;1.88;;;31.80;29.50;;;;;;4998814;28;20181;-65
2022/06/17 12:39:04;;;;;;;3.80;1.75;;;31.90;28.30;;;;;;5014119;28;20213;-65
2022/06/17 12:41:43;;;;;;;1.80;1.67;;;31.90;28.60;;;;;;4973535;28;20267;-66
2022/06/17 12:44:28;;;;;;;1.65;1.55;;;31.90;29.30;;;;;;4996391;28;20260;-65
2022/06/17 12:47:00;;;;;;;2.13;1.40;;;32.00;28.40;;;;;;4997461;28;20268;-65
2022/06/17 12:53:14;;;;;;;3.45;2.55;;;32.30;28.60;;;;;;4993023;28;20482;-64
2022/06/17 12:56:03;;;;;;;2.80;2.40;;;32.40;29.40;;;;;;4988081;28;20184;-66
2022/06/17 12:58:42;;;;;;;2.63;2.42;;;32.40;29.90;;;;;;4970065;28;20217;-65
2022/06/17 13:01:20;;;;;;;2.50;2.30;;;32.40;29.30;;;;;;4991359;28;20180;-66
2022/06/17 13:04:09;;;;;;;2.42;2.30;;;32.40;30.10;;;;;;4999795;28;20187;-65
2022/06/17 13:06:41;;;;;;;2.33;2.20;;;32.40;29.00;;;;;;4995325;28;20712;-67
2022/06/17 13:09:23;;;;;;;3.85;2.67;;;32.30;29.10;;;;;;4999809;28;20207;-64
2022/06/17 13:11:58;;;;;;;4.13;2.63;;;32.40;29.70;;;;;;4983804;28;20189;-65
2022/06/17 13:14:42;;;;;;;2.65;2.45;;;32.50;29.60;;;;;;4980355;28;20177;-64
2022/06/17 13:17:40;;;;;;;8.93;2.60;;;32.60;30.00;;;;;;4981753;28;20190;-64
2022/06/17 13:20:39;;;;;;;8.15;2.45;;;32.80;28.80;;;;;;4993702;28;20219;-65
2022/06/17 13:23:05;;;;;;;5.25;2.05;;;32.90;29.70;;;;;;4983122;28;20176;-64
2022/06/17 13:25:55;;;;;;;2.72;2.20;;;33.10;29.40;;;;;;5000194;28;20519;-64
2022/06/17 13:28:37;;;;;;;2.33;2.22;;;33.10;29.50;;;;;;4987412;28;20285;-64
2022/06/17 13:31:14;;;;;;;4.25;2.38;;;33.20;29.90;;;;;;4988191;28;20192;-64